sensor_id;sensor_type;location;lat;lon;timestamp;P1;durP1;ratioP1;P2;durP2;ratioP2
59930;SDS011;45790;51.538;6.736;2023-12-20T00:02:06;14.93;;;9.60;;
59930;SDS011;45790;51.538;6.736;2023-12-20T00:04:31;14.00;;;8.88;;
59930;SDS011;45790;51.538;6.736;2023-12-20T00:06:56;12.90;;;8.43;;
59930;SDS011;45790;51.538;6.736;2023-12-20T00:09:21;14.18;;;8.48;;
59930;SDS011;45790;51.538;6.736;2023-12-20T00:11:47;12.17;;;8.27;;
59930;SDS011;45790;51.538;6.736;2023-12-20T00:14:12;13.15;;;8.05;;
59930;SDS011;45790;51.538;6.736;2023-12-20T00:16:37;16.25;;;9.02;;
59930;SDS011;45790;51.538;6.736;2023-12-20T00:19:02;12.15;;;8.15;;
59930;SDS011;45790;51.538;6.736;2023-12-20T00:21:27;13.30;;;8.20;;
59930;SDS011;45790;51.538;6.736;2023-12-20T00:23:52;13.45;;;7.93;;
59930;SDS011;45790;51.538;6.736;2023-12-20T00:26:18;14.83;;;8.27;;
59930;SDS011;45790;51.538;6.736;2023-12-20T00:28:43;15.00;;;7.45;;
59930;SDS011;45790;51.538;6.736;2023-12-20T00:31:08;12.82;;;8.18;;
59930;SDS011;45790;51.538;6.736;2023-12-20T00:33:34;12.82;;;7.68;;
59930;SDS011;45790;51.538;6.736;2023-12-20T00:35:59;11.98;;;7.22;;
59930;SDS011;45790;51.538;6.736;2023-12-20T00:38:24;15.30;;;7.72;;
59930;SDS011;45790;51.538;6.736;2023-12-20T00:40:49;12.27;;;7.43;;
59930;SDS011;45790;51.538;6.736;2023-12-20T00:43:14;12.98;;;7.50;;
59930;SDS011;45790;51.538;6.736;2023-12-20T00:45:40;12.32;;;6.80;;
59930;SDS011;45790;51.538;6.736;2023-12-20T00:48:05;11.90;;;6.35;;
59930;SDS011;45790;51.538;6.736;2023-12-20T00:50:30;12.80;;;6.50;;
59930;SDS011;45790;51.538;6.736;2023-12-20T00:52:56;11.80;;;6.35;;
59930;SDS011;45790;51.538;6.736;2023-12-20T00:55:21;11.65;;;6.40;;
59930;SDS011;45790;51.538;6.736;2023-12-20T00:57:46;13.80;;;7.03;;
59930;SDS011;45790;51.538;6.736;2023-12-20T01:00:12;11.13;;;6.35;;
59930;SDS011;45790;51.538;6.736;2023-12-20T01:02:38;12.10;;;6.53;;
59930;SDS011;45790;51.538;6.736;2023-12-20T01:05:03;11.70;;;6.00;;
59930;SDS011;45790;51.538;6.736;2023-12-20T01:07:29;9.80;;;5.85;;
59930;SDS011;45790;51.538;6.736;2023-12-20T01:09:54;14.33;;;5.73;;
59930;SDS011;45790;51.538;6.736;2023-12-20T01:12:19;13.48;;;5.47;;
59930;SDS011;45790;51.538;6.736;2023-12-20T01:14:45;11.27;;;5.68;;
59930;SDS011;45790;51.538;6.736;2023-12-20T01:17:10;14.30;;;5.20;;
59930;SDS011;45790;51.538;6.736;2023-12-20T01:19:35;11.77;;;5.10;;
59930;SDS011;45790;51.538;6.736;2023-12-20T01:22:01;12.23;;;5.70;;
59930;SDS011;45790;51.538;6.736;2023-12-20T01:24:26;12.37;;;5.13;;
59930;SDS011;45790;51.538;6.736;2023-12-20T01:26:51;9.80;;;5.20;;
59930;SDS011;45790;51.538;6.736;2023-12-20T01:29:16;10.75;;;5.82;;
59930;SDS011;45790;51.538;6.736;2023-12-20T01:31:42;12.93;;;6.03;;
59930;SDS011;45790;51.538;6.736;2023-12-20T01:34:07;13.57;;;5.60;;
59930;SDS011;45790;51.538;6.736;2023-12-20T01:36:32;12.77;;;5.60;;
59930;SDS011;45790;51.538;6.736;2023-12-20T01:38:57;15.02;;;5.90;;
59930;SDS011;45790;51.538;6.736;2023-12-20T01:41:23;12.45;;;5.05;;
59930;SDS011;45790;51.538;6.736;2023-12-20T01:43:48;10.30;;;5.00;;
59930;SDS011;45790;51.538;6.736;2023-12-20T01:46:13;14.90;;;5.63;;
59930;SDS011;45790;51.538;6.736;2023-12-20T01:48:39;10.80;;;4.88;;
59930;SDS011;45790;51.538;6.736;2023-12-20T01:51:04;13.93;;;4.32;;
59930;SDS011;45790;51.538;6.736;2023-12-20T01:53:30;12.38;;;5.00;;
59930;SDS011;45790;51.538;6.736;2023-12-20T01:55:56;11.85;;;4.32;;
59930;SDS011;45790;51.538;6.736;2023-12-20T01:58:23;10.27;;;4.38;;
59930;SDS011;45790;51.538;6.736;2023-12-20T02:00:48;12.63;;;4.82;;
59930;SDS011;45790;51.538;6.736;2023-12-20T02:03:13;9.75;;;4.18;;
59930;SDS011;45790;51.538;6.736;2023-12-20T02:05:39;9.63;;;4.15;;
59930;SDS011;45790;51.538;6.736;2023-12-20T02:08:04;11.98;;;4.25;;
59930;SDS011;45790;51.538;6.736;2023-12-20T02:10:30;10.45;;;4.63;;
59930;SDS011;45790;51.538;6.736;2023-12-20T02:12:56;8.77;;;4.32;;
59930;SDS011;45790;51.538;6.736;2023-12-20T02:15:21;12.25;;;5.10;;
59930;SDS011;45790;51.538;6.736;2023-12-20T02:17:46;10.18;;;5.03;;
59930;SDS011;45790;51.538;6.736;2023-12-20T02:20:12;10.63;;;5.10;;
59930;SDS011;45790;51.538;6.736;2023-12-20T02:22:37;11.85;;;5.18;;
59930;SDS011;45790;51.538;6.736;2023-12-20T02:25:02;9.63;;;5.30;;
59930;SDS011;45790;51.538;6.736;2023-12-20T02:27:28;14.45;;;5.43;;
59930;SDS011;45790;51.538;6.736;2023-12-20T02:29:53;12.95;;;5.38;;
59930;SDS011;45790;51.538;6.736;2023-12-20T02:32:19;11.57;;;5.50;;
59930;SDS011;45790;51.538;6.736;2023-12-20T02:34:46;11.90;;;5.53;;
59930;SDS011;45790;51.538;6.736;2023-12-20T02:37:12;14.63;;;5.35;;
59930;SDS011;45790;51.538;6.736;2023-12-20T02:39:37;12.50;;;5.30;;
59930;SDS011;45790;51.538;6.736;2023-12-20T02:42:02;16.60;;;4.85;;
59930;SDS011;45790;51.538;6.736;2023-12-20T02:44:27;13.30;;;5.57;;
59930;SDS011;45790;51.538;6.736;2023-12-20T02:46:53;13.00;;;5.18;;
59930;SDS011;45790;51.538;6.736;2023-12-20T02:49:18;11.82;;;5.15;;
59930;SDS011;45790;51.538;6.736;2023-12-20T02:51:43;14.77;;;4.88;;
59930;SDS011;45790;51.538;6.736;2023-12-20T02:54:08;14.88;;;4.60;;
59930;SDS011;45790;51.538;6.736;2023-12-20T02:56:33;12.30;;;4.72;;
59930;SDS011;45790;51.538;6.736;2023-12-20T02:58:59;12.38;;;4.43;;
59930;SDS011;45790;51.538;6.736;2023-12-20T03:01:24;9.32;;;3.65;;
59930;SDS011;45790;51.538;6.736;2023-12-20T03:03:49;15.43;;;4.50;;
59930;SDS011;45790;51.538;6.736;2023-12-20T03:06:17;12.57;;;3.92;;
59930;SDS011;45790;51.538;6.736;2023-12-20T03:08:43;12.75;;;3.88;;
59930;SDS011;45790;51.538;6.736;2023-12-20T03:11:08;11.30;;;2.85;;
59930;SDS011;45790;51.538;6.736;2023-12-20T03:13:34;7.53;;;3.40;;
59930;SDS011;45790;51.538;6.736;2023-12-20T03:15:59;11.57;;;3.30;;
59930;SDS011;45790;51.538;6.736;2023-12-20T03:18:24;9.18;;;2.97;;
59930;SDS011;45790;51.538;6.736;2023-12-20T03:20:49;9.33;;;3.30;;
59930;SDS011;45790;51.538;6.736;2023-12-20T03:23:15;9.75;;;3.28;;
59930;SDS011;45790;51.538;6.736;2023-12-20T03:25:40;11.20;;;2.88;;
59930;SDS011;45790;51.538;6.736;2023-12-20T03:28:06;12.23;;;4.13;;
59930;SDS011;45790;51.538;6.736;2023-12-20T03:30:31;7.47;;;2.45;;
59930;SDS011;45790;51.538;6.736;2023-12-20T03:32:56;11.68;;;2.90;;
59930;SDS011;45790;51.538;6.736;2023-12-20T03:35:22;12.70;;;2.88;;
59930;SDS011;45790;51.538;6.736;2023-12-20T03:37:47;9.32;;;2.60;;
59930;SDS011;45790;51.538;6.736;2023-12-20T03:40:12;8.85;;;2.40;;
59930;SDS011;45790;51.538;6.736;2023-12-20T03:42:37;9.15;;;2.00;;
59930;SDS011;45790;51.538;6.736;2023-12-20T03:45:03;11.90;;;2.67;;
59930;SDS011;45790;51.538;6.736;2023-12-20T03:47:28;15.35;;;2.90;;
59930;SDS011;45790;51.538;6.736;2023-12-20T03:49:53;12.65;;;2.67;;
59930;SDS011;45790;51.538;6.736;2023-12-20T03:52:18;12.48;;;2.65;;
59930;SDS011;45790;51.538;6.736;2023-12-20T03:54:43;8.43;;;2.47;;
59930;SDS011;45790;51.538;6.736;2023-12-20T03:57:09;9.25;;;2.75;;
59930;SDS011;45790;51.538;6.736;2023-12-20T03:59:34;11.45;;;2.60;;
59930;SDS011;45790;51.538;6.736;2023-12-20T04:01:59;10.02;;;2.05;;
59930;SDS011;45790;51.538;6.736;2023-12-20T04:04:25;12.00;;;2.72;;
59930;SDS011;45790;51.538;6.736;2023-12-20T04:06:50;11.18;;;2.15;;
59930;SDS011;45790;51.538;6.736;2023-12-20T04:09:15;10.95;;;2.35;;
59930;SDS011;45790;51.538;6.736;2023-12-20T04:11:40;11.88;;;2.85;;
59930;SDS011;45790;51.538;6.736;2023-12-20T04:14:06;10.15;;;2.20;;
59930;SDS011;45790;51.538;6.736;2023-12-20T04:16:32;13.07;;;2.95;;
59930;SDS011;45790;51.538;6.736;2023-12-20T04:18:57;13.43;;;2.92;;
59930;SDS011;45790;51.538;6.736;2023-12-20T04:21:22;12.83;;;2.50;;
59930;SDS011;45790;51.538;6.736;2023-12-20T04:23:47;11.70;;;2.83;;
59930;SDS011;45790;51.538;6.736;2023-12-20T04:26:13;9.82;;;2.78;;
59930;SDS011;45790;51.538;6.736;2023-12-20T04:28:38;10.05;;;2.25;;
59930;SDS011;45790;51.538;6.736;2023-12-20T04:31:03;13.82;;;2.75;;
59930;SDS011;45790;51.538;6.736;2023-12-20T04:33:28;12.63;;;2.60;;
59930;SDS011;45790;51.538;6.736;2023-12-20T04:35:53;10.87;;;2.40;;
59930;SDS011;45790;51.538;6.736;2023-12-20T04:38:18;14.63;;;2.67;;
59930;SDS011;45790;51.538;6.736;2023-12-20T04:40:44;7.95;;;2.47;;
59930;SDS011;45790;51.538;6.736;2023-12-20T04:43:09;6.97;;;2.43;;
59930;SDS011;45790;51.538;6.736;2023-12-20T04:45:34;8.73;;;2.55;;
59930;SDS011;45790;51.538;6.736;2023-12-20T04:48:00;10.73;;;2.75;;
59930;SDS011;45790;51.538;6.736;2023-12-20T04:50:26;12.00;;;2.67;;
59930;SDS011;45790;51.538;6.736;2023-12-20T04:52:51;10.38;;;2.15;;
59930;SDS011;45790;51.538;6.736;2023-12-20T04:55:16;10.48;;;2.97;;
59930;SDS011;45790;51.538;6.736;2023-12-20T04:57:41;11.52;;;2.30;;
59930;SDS011;45790;51.538;6.736;2023-12-20T05:00:08;11.07;;;2.88;;
59930;SDS011;45790;51.538;6.736;2023-12-20T05:02:33;12.23;;;2.47;;
59930;SDS011;45790;51.538;6.736;2023-12-20T05:04:59;13.27;;;2.20;;
59930;SDS011;45790;51.538;6.736;2023-12-20T05:07:24;10.85;;;2.55;;
59930;SDS011;45790;51.538;6.736;2023-12-20T05:09:49;7.13;;;2.60;;
59930;SDS011;45790;51.538;6.736;2023-12-20T05:12:14;10.18;;;2.72;;
59930;SDS011;45790;51.538;6.736;2023-12-20T05:14:40;7.68;;;2.30;;
59930;SDS011;45790;51.538;6.736;2023-12-20T05:17:05;13.35;;;3.03;;
59930;SDS011;45790;51.538;6.736;2023-12-20T05:19:30;10.90;;;2.70;;
59930;SDS011;45790;51.538;6.736;2023-12-20T05:21:56;14.10;;;3.10;;
59930;SDS011;45790;51.538;6.736;2023-12-20T05:24:21;12.75;;;3.35;;
59930;SDS011;45790;51.538;6.736;2023-12-20T05:26:46;14.65;;;3.13;;
59930;SDS011;45790;51.538;6.736;2023-12-20T05:29:11;9.93;;;2.90;;
59930;SDS011;45790;51.538;6.736;2023-12-20T05:31:36;11.13;;;2.75;;
59930;SDS011;45790;51.538;6.736;2023-12-20T05:34:02;11.37;;;3.07;;
59930;SDS011;45790;51.538;6.736;2023-12-20T05:36:27;9.35;;;3.08;;
59930;SDS011;45790;51.538;6.736;2023-12-20T05:38:53;10.40;;;3.08;;
59930;SDS011;45790;51.538;6.736;2023-12-20T05:41:18;12.05;;;3.75;;
59930;SDS011;45790;51.538;6.736;2023-12-20T05:43:43;10.90;;;2.78;;
59930;SDS011;45790;51.538;6.736;2023-12-20T05:46:12;10.15;;;2.97;;
59930;SDS011;45790;51.538;6.736;2023-12-20T05:48:37;10.73;;;3.03;;
59930;SDS011;45790;51.538;6.736;2023-12-20T05:51:02;13.30;;;3.27;;
59930;SDS011;45790;51.538;6.736;2023-12-20T05:53:28;9.52;;;3.00;;
59930;SDS011;45790;51.538;6.736;2023-12-20T05:55:53;14.13;;;3.07;;
59930;SDS011;45790;51.538;6.736;2023-12-20T05:58:18;20.25;;;3.75;;
59930;SDS011;45790;51.538;6.736;2023-12-20T06:00:43;11.45;;;3.30;;
59930;SDS011;45790;51.538;6.736;2023-12-20T06:03:08;16.58;;;4.40;;
59930;SDS011;45790;51.538;6.736;2023-12-20T06:05:34;12.33;;;3.37;;
59930;SDS011;45790;51.538;6.736;2023-12-20T06:07:59;14.30;;;3.77;;
59930;SDS011;45790;51.538;6.736;2023-12-20T06:10:27;16.40;;;3.85;;
59930;SDS011;45790;51.538;6.736;2023-12-20T06:12:52;15.60;;;3.25;;
59930;SDS011;45790;51.538;6.736;2023-12-20T06:15:18;14.40;;;3.28;;
59930;SDS011;45790;51.538;6.736;2023-12-20T06:17:43;11.90;;;3.03;;
59930;SDS011;45790;51.538;6.736;2023-12-20T06:20:09;10.27;;;3.45;;
59930;SDS011;45790;51.538;6.736;2023-12-20T06:22:35;13.27;;;3.50;;
59930;SDS011;45790;51.538;6.736;2023-12-20T06:25:00;13.60;;;3.78;;
59930;SDS011;45790;51.538;6.736;2023-12-20T06:27:26;17.35;;;4.00;;
59930;SDS011;45790;51.538;6.736;2023-12-20T06:29:51;12.95;;;3.25;;
59930;SDS011;45790;51.538;6.736;2023-12-20T06:32:16;10.20;;;3.15;;
59930;SDS011;45790;51.538;6.736;2023-12-20T06:34:41;11.02;;;3.35;;
59930;SDS011;45790;51.538;6.736;2023-12-20T06:37:07;14.38;;;3.63;;
59930;SDS011;45790;51.538;6.736;2023-12-20T06:39:32;10.13;;;3.30;;
59930;SDS011;45790;51.538;6.736;2023-12-20T06:41:59;11.50;;;3.63;;
59930;SDS011;45790;51.538;6.736;2023-12-20T06:44:24;13.18;;;3.60;;
59930;SDS011;45790;51.538;6.736;2023-12-20T06:46:49;17.42;;;3.97;;
59930;SDS011;45790;51.538;6.736;2023-12-20T06:49:14;13.20;;;3.95;;
59930;SDS011;45790;51.538;6.736;2023-12-20T06:51:39;10.50;;;3.55;;
59930;SDS011;45790;51.538;6.736;2023-12-20T06:54:05;10.27;;;3.20;;
59930;SDS011;45790;51.538;6.736;2023-12-20T06:56:30;14.98;;;3.38;;
59930;SDS011;45790;51.538;6.736;2023-12-20T06:58:55;15.32;;;3.55;;
59930;SDS011;45790;51.538;6.736;2023-12-20T07:01:21;14.18;;;3.67;;
59930;SDS011;45790;51.538;6.736;2023-12-20T07:03:46;11.68;;;3.90;;
59930;SDS011;45790;51.538;6.736;2023-12-20T07:06:11;18.27;;;3.78;;
59930;SDS011;45790;51.538;6.736;2023-12-20T07:08:36;16.95;;;3.40;;
59930;SDS011;45790;51.538;6.736;2023-12-20T07:11:01;16.45;;;3.63;;
59930;SDS011;45790;51.538;6.736;2023-12-20T07:13:27;15.02;;;3.33;;
59930;SDS011;45790;51.538;6.736;2023-12-20T07:15:52;9.95;;;3.42;;
59930;SDS011;45790;51.538;6.736;2023-12-20T07:18:17;11.50;;;3.72;;
59930;SDS011;45790;51.538;6.736;2023-12-20T07:20:42;13.30;;;4.00;;
59930;SDS011;45790;51.538;6.736;2023-12-20T07:23:08;10.52;;;3.13;;
59930;SDS011;45790;51.538;6.736;2023-12-20T07:25:33;19.27;;;3.97;;
59930;SDS011;45790;51.538;6.736;2023-12-20T07:27:59;11.52;;;3.58;;
59930;SDS011;45790;51.538;6.736;2023-12-20T07:30:24;20.80;;;3.97;;
59930;SDS011;45790;51.538;6.736;2023-12-20T07:32:49;12.82;;;3.42;;
59930;SDS011;45790;51.538;6.736;2023-12-20T07:35:17;12.52;;;3.05;;
59930;SDS011;45790;51.538;6.736;2023-12-20T07:37:42;15.43;;;3.67;;
59930;SDS011;45790;51.538;6.736;2023-12-20T07:40:08;11.05;;;3.20;;
59930;SDS011;45790;51.538;6.736;2023-12-20T07:42:33;17.58;;;4.13;;
59930;SDS011;45790;51.538;6.736;2023-12-20T07:44:58;16.93;;;3.83;;
59930;SDS011;45790;51.538;6.736;2023-12-20T07:47:24;14.70;;;3.40;;
59930;SDS011;45790;51.538;6.736;2023-12-20T07:49:50;16.05;;;3.50;;
59930;SDS011;45790;51.538;6.736;2023-12-20T07:52:16;14.68;;;3.45;;
59930;SDS011;45790;51.538;6.736;2023-12-20T07:54:41;14.25;;;3.35;;
59930;SDS011;45790;51.538;6.736;2023-12-20T07:57:07;13.35;;;3.35;;
59930;SDS011;45790;51.538;6.736;2023-12-20T07:59:32;14.07;;;3.40;;
59930;SDS011;45790;51.538;6.736;2023-12-20T08:01:57;11.75;;;3.25;;
59930;SDS011;45790;51.538;6.736;2023-12-20T08:04:23;15.63;;;4.25;;
59930;SDS011;45790;51.538;6.736;2023-12-20T08:06:48;18.25;;;3.67;;
59930;SDS011;45790;51.538;6.736;2023-12-20T08:09:13;13.53;;;3.80;;
59930;SDS011;45790;51.538;6.736;2023-12-20T08:11:38;11.45;;;3.13;;
59930;SDS011;45790;51.538;6.736;2023-12-20T08:14:03;11.53;;;3.43;;
59930;SDS011;45790;51.538;6.736;2023-12-20T08:16:29;16.70;;;3.53;;
59930;SDS011;45790;51.538;6.736;2023-12-20T08:18:54;14.23;;;3.17;;
59930;SDS011;45790;51.538;6.736;2023-12-20T08:21:19;8.63;;;2.88;;
59930;SDS011;45790;51.538;6.736;2023-12-20T08:23:47;11.45;;;3.08;;
59930;SDS011;45790;51.538;6.736;2023-12-20T08:26:12;9.90;;;3.05;;
59930;SDS011;45790;51.538;6.736;2023-12-20T08:28:38;18.52;;;3.25;;
59930;SDS011;45790;51.538;6.736;2023-12-20T08:31:03;11.98;;;3.30;;
59930;SDS011;45790;51.538;6.736;2023-12-20T08:33:28;15.13;;;2.90;;
59930;SDS011;45790;51.538;6.736;2023-12-20T08:35:53;12.70;;;3.10;;
59930;SDS011;45790;51.538;6.736;2023-12-20T08:38:18;16.90;;;4.93;;
59930;SDS011;45790;51.538;6.736;2023-12-20T08:40:44;14.23;;;3.72;;
59930;SDS011;45790;51.538;6.736;2023-12-20T08:43:09;10.13;;;3.33;;
59930;SDS011;45790;51.538;6.736;2023-12-20T08:45:34;11.98;;;3.25;;
59930;SDS011;45790;51.538;6.736;2023-12-20T08:48:00;14.07;;;3.20;;
59930;SDS011;45790;51.538;6.736;2023-12-20T08:50:25;12.52;;;2.75;;
59930;SDS011;45790;51.538;6.736;2023-12-20T08:52:50;15.52;;;3.13;;
59930;SDS011;45790;51.538;6.736;2023-12-20T08:55:16;16.27;;;3.05;;
59930;SDS011;45790;51.538;6.736;2023-12-20T08:57:43;13.88;;;3.30;;
59930;SDS011;45790;51.538;6.736;2023-12-20T09:00:08;15.98;;;3.78;;
59930;SDS011;45790;51.538;6.736;2023-12-20T09:02:33;9.35;;;2.58;;
59930;SDS011;45790;51.538;6.736;2023-12-20T09:05:01;16.00;;;3.28;;
59930;SDS011;45790;51.538;6.736;2023-12-20T09:07:26;10.43;;;2.97;;
59930;SDS011;45790;51.538;6.736;2023-12-20T09:09:52;19.98;;;3.08;;
59930;SDS011;45790;51.538;6.736;2023-12-20T09:12:18;11.00;;;2.83;;
59930;SDS011;45790;51.538;6.736;2023-12-20T09:14:44;10.50;;;2.78;;
59930;SDS011;45790;51.538;6.736;2023-12-20T09:17:09;15.98;;;3.40;;
59930;SDS011;45790;51.538;6.736;2023-12-20T09:19:36;18.55;;;3.70;;
59930;SDS011;45790;51.538;6.736;2023-12-20T09:22:01;13.52;;;2.88;;
59930;SDS011;45790;51.538;6.736;2023-12-20T09:24:27;12.45;;;2.95;;
59930;SDS011;45790;51.538;6.736;2023-12-20T09:26:52;13.02;;;3.67;;
59930;SDS011;45790;51.538;6.736;2023-12-20T09:29:17;15.45;;;2.95;;
59930;SDS011;45790;51.538;6.736;2023-12-20T09:31:44;13.70;;;2.80;;
59930;SDS011;45790;51.538;6.736;2023-12-20T09:34:09;12.05;;;3.05;;
59930;SDS011;45790;51.538;6.736;2023-12-20T09:36:34;14.75;;;2.83;;
59930;SDS011;45790;51.538;6.736;2023-12-20T09:39:01;14.13;;;3.55;;
59930;SDS011;45790;51.538;6.736;2023-12-20T09:41:26;11.88;;;2.60;;
59930;SDS011;45790;51.538;6.736;2023-12-20T09:43:53;10.88;;;3.10;;
59930;SDS011;45790;51.538;6.736;2023-12-20T09:46:19;9.80;;;3.00;;
59930;SDS011;45790;51.538;6.736;2023-12-20T09:48:47;16.63;;;3.40;;
59930;SDS011;45790;51.538;6.736;2023-12-20T09:51:12;14.43;;;2.75;;
59930;SDS011;45790;51.538;6.736;2023-12-20T09:53:37;12.25;;;2.67;;
59930;SDS011;45790;51.538;6.736;2023-12-20T09:56:03;13.18;;;3.03;;
59930;SDS011;45790;51.538;6.736;2023-12-20T09:58:29;17.45;;;2.65;;
59930;SDS011;45790;51.538;6.736;2023-12-20T10:00:54;11.82;;;3.20;;
59930;SDS011;45790;51.538;6.736;2023-12-20T10:03:25;14.50;;;3.22;;
59930;SDS011;45790;51.538;6.736;2023-12-20T10:05:56;12.80;;;3.13;;
59930;SDS011;45790;51.538;6.736;2023-12-20T10:08:22;12.00;;;2.92;;
59930;SDS011;45790;51.538;6.736;2023-12-20T10:10:48;13.65;;;2.75;;
59930;SDS011;45790;51.538;6.736;2023-12-20T10:13:14;11.80;;;3.25;;
59930;SDS011;45790;51.538;6.736;2023-12-20T10:15:40;11.60;;;2.85;;
59930;SDS011;45790;51.538;6.736;2023-12-20T10:18:05;18.88;;;3.25;;
59930;SDS011;45790;51.538;6.736;2023-12-20T10:20:31;14.07;;;2.83;;
59930;SDS011;45790;51.538;6.736;2023-12-20T10:22:57;11.88;;;2.90;;
59930;SDS011;45790;51.538;6.736;2023-12-20T10:25:23;15.27;;;3.17;;
59930;SDS011;45790;51.538;6.736;2023-12-20T10:27:49;12.85;;;3.00;;
59930;SDS011;45790;51.538;6.736;2023-12-20T10:30:14;12.10;;;2.80;;
59930;SDS011;45790;51.538;6.736;2023-12-20T10:32:39;8.52;;;2.70;;
59930;SDS011;45790;51.538;6.736;2023-12-20T10:35:05;9.00;;;2.40;;
59930;SDS011;45790;51.538;6.736;2023-12-20T10:37:30;15.43;;;3.15;;
59930;SDS011;45790;51.538;6.736;2023-12-20T10:39:56;10.20;;;2.83;;
59930;SDS011;45790;51.538;6.736;2023-12-20T10:42:22;8.43;;;2.85;;
59930;SDS011;45790;51.538;6.736;2023-12-20T10:44:49;10.77;;;3.00;;
59930;SDS011;45790;51.538;6.736;2023-12-20T10:47:14;13.68;;;2.83;;
59930;SDS011;45790;51.538;6.736;2023-12-20T10:49:40;9.18;;;2.60;;
59930;SDS011;45790;51.538;6.736;2023-12-20T10:52:05;12.52;;;3.13;;
59930;SDS011;45790;51.538;6.736;2023-12-20T10:54:31;11.68;;;3.00;;
59930;SDS011;45790;51.538;6.736;2023-12-20T10:56:57;14.63;;;3.05;;
59930;SDS011;45790;51.538;6.736;2023-12-20T10:59:22;11.80;;;3.28;;
59930;SDS011;45790;51.538;6.736;2023-12-20T11:01:48;12.93;;;2.90;;
59930;SDS011;45790;51.538;6.736;2023-12-20T11:04:15;10.02;;;2.72;;
59930;SDS011;45790;51.538;6.736;2023-12-20T11:06:49;11.95;;;2.78;;
59930;SDS011;45790;51.538;6.736;2023-12-20T11:09:26;11.50;;;3.42;;
59930;SDS011;45790;51.538;6.736;2023-12-20T11:14:42;13.95;;;3.65;;
59930;SDS011;45790;51.538;6.736;2023-12-20T11:17:10;13.55;;;2.80;;
59930;SDS011;45790;51.538;6.736;2023-12-20T11:24:47;14.57;;;3.65;;
59930;SDS011;45790;51.538;6.736;2023-12-20T11:27:13;15.70;;;3.22;;
59930;SDS011;45790;51.538;6.736;2023-12-20T11:29:38;10.48;;;2.85;;
59930;SDS011;45790;51.538;6.736;2023-12-20T11:32:50;10.93;;;2.88;;
59930;SDS011;45790;51.538;6.736;2023-12-20T11:34:56;13.52;;;3.50;;
59930;SDS011;45790;51.538;6.736;2023-12-20T11:37:27;12.13;;;3.58;;
59930;SDS011;45790;51.538;6.736;2023-12-20T11:39:54;12.52;;;3.72;;
59930;SDS011;45790;51.538;6.736;2023-12-20T11:42:19;13.07;;;3.47;;
59930;SDS011;45790;51.538;6.736;2023-12-20T11:44:45;13.82;;;3.72;;
59930;SDS011;45790;51.538;6.736;2023-12-20T11:47:10;12.70;;;3.30;;
59930;SDS011;45790;51.538;6.736;2023-12-20T11:49:37;13.85;;;3.15;;
59930;SDS011;45790;51.538;6.736;2023-12-20T11:52:02;18.37;;;3.60;;
59930;SDS011;45790;51.538;6.736;2023-12-20T11:54:29;15.63;;;3.35;;
59930;SDS011;45790;51.538;6.736;2023-12-20T11:56:55;12.07;;;3.47;;
59930;SDS011;45790;51.538;6.736;2023-12-20T11:59:20;10.68;;;3.38;;
59930;SDS011;45790;51.538;6.736;2023-12-20T12:01:48;11.90;;;3.23;;
59930;SDS011;45790;51.538;6.736;2023-12-20T12:04:15;10.02;;;2.92;;
59930;SDS011;45790;51.538;6.736;2023-12-20T12:06:42;10.65;;;2.83;;
59930;SDS011;45790;51.538;6.736;2023-12-20T12:09:07;12.65;;;3.40;;
59930;SDS011;45790;51.538;6.736;2023-12-20T12:11:33;15.38;;;3.70;;
59930;SDS011;45790;51.538;6.736;2023-12-20T12:13:58;12.00;;;3.30;;
59930;SDS011;45790;51.538;6.736;2023-12-20T12:16:24;16.25;;;3.78;;
59930;SDS011;45790;51.538;6.736;2023-12-20T12:18:56;13.85;;;3.53;;
59930;SDS011;45790;51.538;6.736;2023-12-20T12:21:22;13.60;;;4.07;;
59930;SDS011;45790;51.538;6.736;2023-12-20T12:23:47;12.73;;;4.57;;
59930;SDS011;45790;51.538;6.736;2023-12-20T12:26:13;12.02;;;3.30;;
59930;SDS011;45790;51.538;6.736;2023-12-20T12:28:41;12.15;;;3.65;;
59930;SDS011;45790;51.538;6.736;2023-12-20T12:31:07;14.65;;;3.58;;
59930;SDS011;45790;51.538;6.736;2023-12-20T12:33:32;18.38;;;4.10;;
59930;SDS011;45790;51.538;6.736;2023-12-20T12:35:57;14.98;;;4.00;;
59930;SDS011;45790;51.538;6.736;2023-12-20T12:38:24;12.13;;;3.38;;
59930;SDS011;45790;51.538;6.736;2023-12-20T12:40:49;10.85;;;3.13;;
59930;SDS011;45790;51.538;6.736;2023-12-20T12:43:15;11.15;;;3.42;;
59930;SDS011;45790;51.538;6.736;2023-12-20T12:45:40;12.13;;;2.83;;
59930;SDS011;45790;51.538;6.736;2023-12-20T12:48:05;10.05;;;3.13;;
59930;SDS011;45790;51.538;6.736;2023-12-20T12:50:30;9.63;;;2.90;;
59930;SDS011;45790;51.538;6.736;2023-12-20T12:52:56;12.75;;;3.13;;
59930;SDS011;45790;51.538;6.736;2023-12-20T12:55:21;16.35;;;3.60;;
59930;SDS011;45790;51.538;6.736;2023-12-20T12:57:46;13.23;;;3.63;;
59930;SDS011;45790;51.538;6.736;2023-12-20T13:00:11;16.08;;;3.50;;
59930;SDS011;45790;51.538;6.736;2023-12-20T13:02:37;11.07;;;3.03;;
59930;SDS011;45790;51.538;6.736;2023-12-20T13:05:03;11.48;;;3.13;;
59930;SDS011;45790;51.538;6.736;2023-12-20T13:07:29;14.75;;;3.30;;
59930;SDS011;45790;51.538;6.736;2023-12-20T13:09:54;13.82;;;3.53;;
59930;SDS011;45790;51.538;6.736;2023-12-20T13:12:19;10.85;;;3.08;;
59930;SDS011;45790;51.538;6.736;2023-12-20T13:14:46;11.35;;;3.25;;
59930;SDS011;45790;51.538;6.736;2023-12-20T13:17:11;15.40;;;3.95;;
59930;SDS011;45790;51.538;6.736;2023-12-20T13:19:37;11.48;;;3.03;;
59930;SDS011;45790;51.538;6.736;2023-12-20T13:22:02;9.10;;;3.30;;
59930;SDS011;45790;51.538;6.736;2023-12-20T13:24:27;10.65;;;3.30;;
59930;SDS011;45790;51.538;6.736;2023-12-20T13:26:52;9.93;;;3.25;;
59930;SDS011;45790;51.538;6.736;2023-12-20T13:29:17;10.85;;;3.20;;
59930;SDS011;45790;51.538;6.736;2023-12-20T13:31:43;11.80;;;3.45;;
59930;SDS011;45790;51.538;6.736;2023-12-20T13:34:08;9.87;;;3.23;;
59930;SDS011;45790;51.538;6.736;2023-12-20T13:36:33;13.60;;;3.80;;
59930;SDS011;45790;51.538;6.736;2023-12-20T13:38:58;11.20;;;3.50;;
59930;SDS011;45790;51.538;6.736;2023-12-20T13:41:23;10.98;;;3.58;;
59930;SDS011;45790;51.538;6.736;2023-12-20T13:43:49;13.63;;;3.40;;
59930;SDS011;45790;51.538;6.736;2023-12-20T13:46:14;13.45;;;3.70;;
59930;SDS011;45790;51.538;6.736;2023-12-20T13:48:39;12.07;;;3.53;;
59930;SDS011;45790;51.538;6.736;2023-12-20T13:51:05;11.73;;;3.72;;
59930;SDS011;45790;51.538;6.736;2023-12-20T13:53:30;9.85;;;3.58;;
59930;SDS011;45790;51.538;6.736;2023-12-20T13:55:56;14.75;;;4.38;;
59930;SDS011;45790;51.538;6.736;2023-12-20T13:58:22;9.43;;;3.58;;
59930;SDS011;45790;51.538;6.736;2023-12-20T14:00:48;14.38;;;4.45;;
59930;SDS011;45790;51.538;6.736;2023-12-20T14:03:13;11.77;;;3.70;;
59930;SDS011;45790;51.538;6.736;2023-12-20T14:05:38;11.50;;;4.17;;
59930;SDS011;45790;51.538;6.736;2023-12-20T14:08:03;11.88;;;3.90;;
59930;SDS011;45790;51.538;6.736;2023-12-20T14:10:29;8.60;;;3.55;;
59930;SDS011;45790;51.538;6.736;2023-12-20T14:12:55;11.60;;;3.80;;
59930;SDS011;45790;51.538;6.736;2023-12-20T14:15:20;11.25;;;3.85;;
59930;SDS011;45790;51.538;6.736;2023-12-20T14:17:45;10.70;;;4.28;;
59930;SDS011;45790;51.538;6.736;2023-12-20T14:20:10;12.02;;;4.20;;
59930;SDS011;45790;51.538;6.736;2023-12-20T14:22:38;11.15;;;4.10;;
59930;SDS011;45790;51.538;6.736;2023-12-20T14:25:04;12.63;;;4.53;;
59930;SDS011;45790;51.538;6.736;2023-12-20T14:27:29;11.70;;;4.28;;
59930;SDS011;45790;51.538;6.736;2023-12-20T14:29:54;13.88;;;4.20;;
59930;SDS011;45790;51.538;6.736;2023-12-20T14:32:19;12.95;;;4.05;;
59930;SDS011;45790;51.538;6.736;2023-12-20T14:34:45;14.40;;;4.43;;